sensor_id;sensor_type;location;lat;lon;timestamp;temperature;humidity
38860;DHT22;24609;48.316;16.174;2024-03-02T00:00:11;5.20;99.90
38860;DHT22;24609;48.316;16.174;2024-03-02T00:02:40;5.30;99.90
38860;DHT22;24609;48.316;16.174;2024-03-02T00:05:06;5.30;99.90
38860;DHT22;24609;48.316;16.174;2024-03-02T00:07:33;5.20;99.90
38860;DHT22;24609;48.316;16.174;2024-03-02T00:09:59;5.10;99.90
38860;DHT22;24609;48.316;16.174;2024-03-02T00:12:25;5.00;99.90
38860;DHT22;24609;48.316;16.174;2024-03-02T00:14:51;4.90;99.90
38860;DHT22;24609;48.316;16.174;2024-03-02T00:17:25;4.80;99.90
38860;DHT22;24609;48.316;16.174;2024-03-02T00:19:51;4.90;99.90
38860;DHT22;24609;48.316;16.174;2024-03-02T00:22:18;5.00;99.90
38860;DHT22;24609;48.316;16.174;2024-03-02T00:24:43;5.10;99.90
38860;DHT22;24609;48.316;16.174;2024-03-02T00:27:13;5.10;99.90
38860;DHT22;24609;48.316;16.174;2024-03-02T00:29:40;5.20;99.90
38860;DHT22;24609;48.316;16.174;2024-03-02T00:32:13;5.30;99.90
38860;DHT22;24609;48.316;16.174;2024-03-02T00:34:40;5.30;99.90
38860;DHT22;24609;48.316;16.174;2024-03-02T00:37:06;5.30;99.90
38860;DHT22;24609;48.316;16.174;2024-03-02T00:39:33;5.40;99.90
38860;DHT22;24609;48.316;16.174;2024-03-02T00:41:58;5.80;99.90
38860;DHT22;24609;48.316;16.174;2024-03-02T00:44:25;5.90;99.90
38860;DHT22;24609;48.316;16.174;2024-03-02T00:46:59;6.00;99.90
38860;DHT22;24609;48.316;16.174;2024-03-02T00:49:26;6.00;99.90
38860;DHT22;24609;48.316;16.174;2024-03-02T00:51:53;5.90;99.90
38860;DHT22;24609;48.316;16.174;2024-03-02T00:54:24;6.00;99.90
38860;DHT22;24609;48.316;16.174;2024-03-02T00:56:54;6.10;99.90
38860;DHT22;24609;48.316;16.174;2024-03-02T00:59:22;6.10;99.90
38860;DHT22;24609;48.316;16.174;2024-03-02T01:01:48;6.10;99.90
38860;DHT22;24609;48.316;16.174;2024-03-02T01:04:17;6.20;99.90
38860;DHT22;24609;48.316;16.174;2024-03-02T01:06:43;6.30;99.90
38860;DHT22;24609;48.316;16.174;2024-03-02T01:09:09;6.40;99.90
38860;DHT22;24609;48.316;16.174;2024-03-02T01:11:35;6.20;99.90
38860;DHT22;24609;48.316;16.174;2024-03-02T01:14:00;6.00;99.90
38860;DHT22;24609;48.316;16.174;2024-03-02T01:16:26;5.80;99.90
38860;DHT22;24609;48.316;16.174;2024-03-02T01:18:51;5.60;99.90
38860;DHT22;24609;48.316;16.174;2024-03-02T01:21:17;5.50;99.90
38860;DHT22;24609;48.316;16.174;2024-03-02T01:23:43;5.30;99.90
38860;DHT22;24609;48.316;16.174;2024-03-02T01:26:09;5.30;99.90
38860;DHT22;24609;48.316;16.174;2024-03-02T01:28:34;5.10;99.90
38860;DHT22;24609;48.316;16.174;2024-03-02T01:31:00;5.00;99.90
38860;DHT22;24609;48.316;16.174;2024-03-02T01:33:27;5.00;99.90
38860;DHT22;24609;48.316;16.174;2024-03-02T01:35:53;4.90;99.90
38860;DHT22;24609;48.316;16.174;2024-03-02T01:38:18;5.00;99.90
38860;DHT22;24609;48.316;16.174;2024-03-02T01:40:45;5.10;99.90
38860;DHT22;24609;48.316;16.174;2024-03-02T01:43:10;5.20;99.90
38860;DHT22;24609;48.316;16.174;2024-03-02T01:45:36;5.30;99.90
38860;DHT22;24609;48.316;16.174;2024-03-02T01:48:04;5.30;99.90
38860;DHT22;24609;48.316;16.174;2024-03-02T01:50:32;5.20;99.90
38860;DHT22;24609;48.316;16.174;2024-03-02T01:52:59;5.20;99.90
38860;DHT22;24609;48.316;16.174;2024-03-02T01:55:25;5.30;99.90
38860;DHT22;24609;48.316;16.174;2024-03-02T01:57:52;5.30;99.90
38860;DHT22;24609;48.316;16.174;2024-03-02T02:00:21;5.30;99.90
38860;DHT22;24609;48.316;16.174;2024-03-02T02:02:50;5.40;99.90
38860;DHT22;24609;48.316;16.174;2024-03-02T02:05:16;5.50;99.90
38860;DHT22;24609;48.316;16.174;2024-03-02T02:07:42;5.60;99.90
38860;DHT22;24609;48.316;16.174;2024-03-02T02:10:09;5.70;99.90
38860;DHT22;24609;48.316;16.174;2024-03-02T02:12:35;5.70;99.90
38860;DHT22;24609;48.316;16.174;2024-03-02T02:15:02;5.90;99.90
38860;DHT22;24609;48.316;16.174;2024-03-02T02:17:28;5.90;99.90
38860;DHT22;24609;48.316;16.174;2024-03-02T02:19:53;5.90;99.90
38860;DHT22;24609;48.316;16.174;2024-03-02T02:22:19;5.90;99.90
38860;DHT22;24609;48.316;16.174;2024-03-02T02:24:44;6.00;99.90
38860;DHT22;24609;48.316;16.174;2024-03-02T02:27:10;6.00;99.90
38860;DHT22;24609;48.316;16.174;2024-03-02T02:29:36;6.00;99.90
38860;DHT22;24609;48.316;16.174;2024-03-02T02:32:02;6.10;99.90
38860;DHT22;24609;48.316;16.174;2024-03-02T02:34:28;6.10;99.90
38860;DHT22;24609;48.316;16.174;2024-03-02T02:36:54;6.10;99.90
38860;DHT22;24609;48.316;16.174;2024-03-02T02:39:21;6.00;99.90
38860;DHT22;24609;48.316;16.174;2024-03-02T02:41:48;5.70;99.90
38860;DHT22;24609;48.316;16.174;2024-03-02T02:44:13;5.70;99.90
38860;DHT22;24609;48.316;16.174;2024-03-02T02:46:40;5.70;99.90
38860;DHT22;24609;48.316;16.174;2024-03-02T02:49:06;5.80;99.90
38860;DHT22;24609;48.316;16.174;2024-03-02T02:51:31;5.90;99.90
38860;DHT22;24609;48.316;16.174;2024-03-02T02:53:57;6.00;99.90
38860;DHT22;24609;48.316;16.174;2024-03-02T02:56:23;6.10;99.90
38860;DHT22;24609;48.316;16.174;2024-03-02T02:58:49;6.20;99.90
38860;DHT22;24609;48.316;16.174;2024-03-02T03:01:16;6.20;99.90
38860;DHT22;24609;48.316;16.174;2024-03-02T03:03:45;6.20;99.90
38860;DHT22;24609;48.316;16.174;2024-03-02T03:06:11;6.30;99.90
38860;DHT22;24609;48.316;16.174;2024-03-02T03:08:36;6.30;99.90
38860;DHT22;24609;48.316;16.174;2024-03-02T03:11:03;6.40;99.90
38860;DHT22;24609;48.316;16.174;2024-03-02T03:13:29;6.30;99.90
38860;DHT22;24609;48.316;16.174;2024-03-02T03:15:54;6.30;99.90
38860;DHT22;24609;48.316;16.174;2024-03-02T03:18:20;6.20;99.90
38860;DHT22;24609;48.316;16.174;2024-03-02T03:20:46;6.00;99.90
38860;DHT22;24609;48.316;16.174;2024-03-02T03:23:11;6.00;99.90
38860;DHT22;24609;48.316;16.174;2024-03-02T03:25:41;5.90;99.90
38860;DHT22;24609;48.316;16.174;2024-03-02T03:28:07;6.00;99.90
38860;DHT22;24609;48.316;16.174;2024-03-02T03:30:38;5.90;99.90
38860;DHT22;24609;48.316;16.174;2024-03-02T03:33:05;5.80;99.90
38860;DHT22;24609;48.316;16.174;2024-03-02T03:35:34;5.80;99.90
38860;DHT22;24609;48.316;16.174;2024-03-02T03:38:00;5.70;99.90
38860;DHT22;24609;48.316;16.174;2024-03-02T03:40:26;5.60;99.90
38860;DHT22;24609;48.316;16.174;2024-03-02T03:42:51;5.50;99.90
38860;DHT22;24609;48.316;16.174;2024-03-02T03:45:17;5.50;99.90
38860;DHT22;24609;48.316;16.174;2024-03-02T03:47:43;5.50;99.90
38860;DHT22;24609;48.316;16.174;2024-03-02T03:50:09;5.50;99.90
38860;DHT22;24609;48.316;16.174;2024-03-02T03:52:35;5.60;99.90
38860;DHT22;24609;48.316;16.174;2024-03-02T03:55:00;5.80;99.90
38860;DHT22;24609;48.316;16.174;2024-03-02T03:57:26;5.90;99.90
38860;DHT22;24609;48.316;16.174;2024-03-02T03:59:52;5.90;99.90
38860;DHT22;24609;48.316;16.174;2024-03-02T04:02:18;5.90;99.90
38860;DHT22;24609;48.316;16.174;2024-03-02T04:04:44;6.00;99.90
38860;DHT22;24609;48.316;16.174;2024-03-02T04:07:09;6.00;99.90
38860;DHT22;24609;48.316;16.174;2024-03-02T04:09:35;6.00;99.90
38860;DHT22;24609;48.316;16.174;2024-03-02T04:12:01;6.00;99.90
38860;DHT22;24609;48.316;16.174;2024-03-02T04:14:27;5.90;99.90
38860;DHT22;24609;48.316;16.174;2024-03-02T04:16:52;5.90;99.90
38860;DHT22;24609;48.316;16.174;2024-03-02T04:19:18;5.80;99.90
38860;DHT22;24609;48.316;16.174;2024-03-02T04:21:44;5.80;99.90
38860;DHT22;24609;48.316;16.174;2024-03-02T04:24:09;5.90;99.90
38860;DHT22;24609;48.316;16.174;2024-03-02T04:26:35;5.90;99.90
38860;DHT22;24609;48.316;16.174;2024-03-02T04:29:01;5.90;99.90
38860;DHT22;24609;48.316;16.174;2024-03-02T04:31:27;5.90;99.90
38860;DHT22;24609;48.316;16.174;2024-03-02T04:33:53;6.00;99.90
38860;DHT22;24609;48.316;16.174;2024-03-02T04:36:19;6.00;99.90
38860;DHT22;24609;48.316;16.174;2024-03-02T04:38:46;6.10;99.90
38860;DHT22;24609;48.316;16.174;2024-03-02T04:41:12;6.10;99.90
38860;DHT22;24609;48.316;16.174;2024-03-02T04:43:37;6.20;99.90
38860;DHT22;24609;48.316;16.174;2024-03-02T04:46:03;6.10;99.90
38860;DHT22;24609;48.316;16.174;2024-03-02T04:48:29;6.10;99.90
38860;DHT22;24609;48.316;16.174;2024-03-02T04:50:54;6.10;99.90
38860;DHT22;24609;48.316;16.174;2024-03-02T04:53:20;6.00;99.90
38860;DHT22;24609;48.316;16.174;2024-03-02T04:55:46;6.00;99.90
38860;DHT22;24609;48.316;16.174;2024-03-02T04:58:32;5.90;99.90
38860;DHT22;24609;48.316;16.174;2024-03-02T05:00:58;5.90;99.90
38860;DHT22;24609;48.316;16.174;2024-03-02T05:03:23;5.90;99.90
38860;DHT22;24609;48.316;16.174;2024-03-02T05:05:49;5.80;99.90
38860;DHT22;24609;48.316;16.174;2024-03-02T05:08:15;5.80;99.90
38860;DHT22;24609;48.316;16.174;2024-03-02T05:10:42;5.80;99.90
38860;DHT22;24609;48.316;16.174;2024-03-02T05:13:08;5.70;99.90
38860;DHT22;24609;48.316;16.174;2024-03-02T05:15:33;5.70;99.90
38860;DHT22;24609;48.316;16.174;2024-03-02T05:17:59;5.70;99.90
38860;DHT22;24609;48.316;16.174;2024-03-02T05:20:25;5.70;99.90
38860;DHT22;24609;48.316;16.174;2024-03-02T05:22:51;5.70;99.90
38860;DHT22;24609;48.316;16.174;2024-03-02T05:25:16;5.70;99.90
38860;DHT22;24609;48.316;16.174;2024-03-02T05:27:42;5.70;99.90
38860;DHT22;24609;48.316;16.174;2024-03-02T05:30:08;5.70;99.90
38860;DHT22;24609;48.316;16.174;2024-03-02T05:32:34;5.70;99.90
38860;DHT22;24609;48.316;16.174;2024-03-02T05:35:00;5.70;99.90
38860;DHT22;24609;48.316;16.174;2024-03-02T05:37:25;5.60;99.90
38860;DHT22;24609;48.316;16.174;2024-03-02T05:39:51;5.70;99.90
38860;DHT22;24609;48.316;16.174;2024-03-02T05:42:16;5.50;99.90
38860;DHT22;24609;48.316;16.174;2024-03-02T05:44:43;5.60;99.90
38860;DHT22;24609;48.316;16.174;2024-03-02T05:47:08;5.60;99.90
38860;DHT22;24609;48.316;16.174;2024-03-02T05:49:35;5.60;99.90
38860;DHT22;24609;48.316;16.174;2024-03-02T05:52:00;5.70;99.90
38860;DHT22;24609;48.316;16.174;2024-03-02T05:54:26;5.70;99.90
38860;DHT22;24609;48.316;16.174;2024-03-02T05:56:52;5.70;99.90
38860;DHT22;24609;48.316;16.174;2024-03-02T05:59:17;5.60;99.90
38860;DHT22;24609;48.316;16.174;2024-03-02T06:01:44;5.60;99.90
38860;DHT22;24609;48.316;16.174;2024-03-02T06:04:12;5.70;99.90
38860;DHT22;24609;48.316;16.174;2024-03-02T06:06:37;5.70;99.90
38860;DHT22;24609;48.316;16.174;2024-03-02T06:09:04;5.70;99.90
38860;DHT22;24609;48.316;16.174;2024-03-02T06:11:37;5.70;99.90
38860;DHT22;24609;48.316;16.174;2024-03-02T06:14:03;5.70;99.90
38860;DHT22;24609;48.316;16.174;2024-03-02T06:16:29;5.70;99.90
38860;DHT22;24609;48.316;16.174;2024-03-02T06:18:55;5.80;99.90
38860;DHT22;24609;48.316;16.174;2024-03-02T06:21:23;5.80;99.90
38860;DHT22;24609;48.316;16.174;2024-03-02T06:23:49;5.80;99.90
38860;DHT22;24609;48.316;16.174;2024-03-02T06:26:15;5.90;99.90
38860;DHT22;24609;48.316;16.174;2024-03-02T06:28:40;5.90;99.90
38860;DHT22;24609;48.316;16.174;2024-03-02T06:31:06;5.90;99.90
38860;DHT22;24609;48.316;16.174;2024-03-02T06:33:32;5.90;99.90
38860;DHT22;24609;48.316;16.174;2024-03-02T06:35:58;6.00;99.90
38860;DHT22;24609;48.316;16.174;2024-03-02T06:38:26;5.90;99.90
38860;DHT22;24609;48.316;16.174;2024-03-02T06:40:52;5.90;99.90
38860;DHT22;24609;48.316;16.174;2024-03-02T06:43:18;6.00;99.90
38860;DHT22;24609;48.316;16.174;2024-03-02T06:45:51;5.90;99.90
38860;DHT22;24609;48.316;16.174;2024-03-02T06:48:17;6.00;99.90
38860;DHT22;24609;48.316;16.174;2024-03-02T06:50:49;5.90;99.90
38860;DHT22;24609;48.316;16.174;2024-03-02T06:53:16;5.80;99.90
38860;DHT22;24609;48.316;16.174;2024-03-02T06:55:45;5.90;99.90
38860;DHT22;24609;48.316;16.174;2024-03-02T06:58:11;5.90;99.90
38860;DHT22;24609;48.316;16.174;2024-03-02T07:00:37;6.00;99.90
38860;DHT22;24609;48.316;16.174;2024-03-02T07:03:04;5.90;99.90
38860;DHT22;24609;48.316;16.174;2024-03-02T07:05:29;5.90;99.90
38860;DHT22;24609;48.316;16.174;2024-03-02T07:07:55;6.00;99.90
38860;DHT22;24609;48.316;16.174;2024-03-02T07:10:21;6.10;99.90
38860;DHT22;24609;48.316;16.174;2024-03-02T07:12:47;6.00;78.10
38860;DHT22;24609;48.316;16.174;2024-03-02T07:15:12;6.10;55.00
38860;DHT22;24609;48.316;16.174;2024-03-02T07:17:53;6.30;63.20
38860;DHT22;24609;48.316;16.174;2024-03-02T07:20:18;6.40;85.20
38860;DHT22;24609;48.316;16.174;2024-03-02T07:22:44;6.40;14.10
38860;DHT22;24609;48.316;16.174;2024-03-02T07:25:10;6.80;59.50
38860;DHT22;24609;48.316;16.174;2024-03-02T07:27:36;6.80;1.00
38860;DHT22;24609;48.316;16.174;2024-03-02T07:30:03;6.60;1.00
38860;DHT22;24609;48.316;16.174;2024-03-02T07:32:29;6.80;1.00
38860;DHT22;24609;48.316;16.174;2024-03-02T07:34:54;7.00;1.00
38860;DHT22;24609;48.316;16.174;2024-03-02T07:37:21;7.10;1.00
38860;DHT22;24609;48.316;16.174;2024-03-02T07:39:47;7.20;1.00
38860;DHT22;24609;48.316;16.174;2024-03-02T07:42:13;7.30;99.90
38860;DHT22;24609;48.316;16.174;2024-03-02T07:44:39;7.40;99.90
38860;DHT22;24609;48.316;16.174;2024-03-02T07:47:05;7.40;99.90
38860;DHT22;24609;48.316;16.174;2024-03-02T07:49:30;7.40;99.90
38860;DHT22;24609;48.316;16.174;2024-03-02T07:51:56;7.60;99.90
38860;DHT22;24609;48.316;16.174;2024-03-02T07:54:22;7.70;99.90
38860;DHT22;24609;48.316;16.174;2024-03-02T07:56:47;8.00;99.90
38860;DHT22;24609;48.316;16.174;2024-03-02T07:59:14;8.40;99.90
38860;DHT22;24609;48.316;16.174;2024-03-02T08:01:40;7.80;1.00
38860;DHT22;24609;48.316;16.174;2024-03-02T08:04:06;7.70;99.90
38860;DHT22;24609;48.316;16.174;2024-03-02T08:06:32;7.50;99.90
38860;DHT22;24609;48.316;16.174;2024-03-02T08:08:59;7.40;99.90
38860;DHT22;24609;48.316;16.174;2024-03-02T08:11:25;7.90;99.90
38860;DHT22;24609;48.316;16.174;2024-03-02T08:13:53;8.50;99.90
38860;DHT22;24609;48.316;16.174;2024-03-02T08:16:21;8.70;99.90
38860;DHT22;24609;48.316;16.174;2024-03-02T08:18:48;9.20;99.90
38860;DHT22;24609;48.316;16.174;2024-03-02T08:21:14;9.50;1.00
38860;DHT22;24609;48.316;16.174;2024-03-02T08:23:40;10.20;1.00
38860;DHT22;24609;48.316;16.174;2024-03-02T08:26:08;10.30;99.90
38860;DHT22;24609;48.316;16.174;2024-03-02T08:28:34;11.60;99.90
38860;DHT22;24609;48.316;16.174;2024-03-02T08:30:59;12.70;99.90
38860;DHT22;24609;48.316;16.174;2024-03-02T08:33:25;13.10;1.00
38860;DHT22;24609;48.316;16.174;2024-03-02T08:35:51;13.40;1.00
38860;DHT22;24609;48.316;16.174;2024-03-02T08:38:17;13.30;99.90
38860;DHT22;24609;48.316;16.174;2024-03-02T08:40:43;12.90;1.00
38860;DHT22;24609;48.316;16.174;2024-03-02T08:43:09;12.50;7.40
38860;DHT22;24609;48.316;16.174;2024-03-02T08:45:35;12.60;99.90
38860;DHT22;24609;48.316;16.174;2024-03-02T08:48:01;13.00;99.90
38860;DHT22;24609;48.316;16.174;2024-03-02T08:50:27;13.20;99.90
38860;DHT22;24609;48.316;16.174;2024-03-02T08:52:52;13.20;99.90
38860;DHT22;24609;48.316;16.174;2024-03-02T08:55:18;12.50;99.90
38860;DHT22;24609;48.316;16.174;2024-03-02T08:57:44;12.30;1.00
38860;DHT22;24609;48.316;16.174;2024-03-02T09:00:10;13.20;99.90
38860;DHT22;24609;48.316;16.174;2024-03-02T09:02:36;12.60;1.00
38860;DHT22;24609;48.316;16.174;2024-03-02T09:05:02;13.70;24.40
38860;DHT22;24609;48.316;16.174;2024-03-02T09:07:27;13.90;99.90
38860;DHT22;24609;48.316;16.174;2024-03-02T09:09:53;12.90;99.90
38860;DHT22;24609;48.316;16.174;2024-03-02T09:12:19;12.10;1.00
38860;DHT22;24609;48.316;16.174;2024-03-02T09:14:45;11.90;99.90
38860;DHT22;24609;48.316;16.174;2024-03-02T09:17:12;12.40;1.00
38860;DHT22;24609;48.316;16.174;2024-03-02T09:19:39;12.40;99.90
38860;DHT22;24609;48.316;16.174;2024-03-02T09:22:05;12.40;99.90
38860;DHT22;24609;48.316;16.174;2024-03-02T09:24:31;12.10;99.90
38860;DHT22;24609;48.316;16.174;2024-03-02T09:26:59;11.70;99.90
38860;DHT22;24609;48.316;16.174;2024-03-02T09:29:24;11.80;99.90
38860;DHT22;24609;48.316;16.174;2024-03-02T09:31:50;12.70;99.90
38860;DHT22;24609;48.316;16.174;2024-03-02T09:34:16;12.50;47.60
38860;DHT22;24609;48.316;16.174;2024-03-02T09:36:42;12.30;99.90
38860;DHT22;24609;48.316;16.174;2024-03-02T09:39:08;12.50;77.90
38860;DHT22;24609;48.316;16.174;2024-03-02T09:41:38;13.10;1.00
38860;DHT22;24609;48.316;16.174;2024-03-02T09:44:04;13.50;1.00
38860;DHT22;24609;48.316;16.174;2024-03-02T09:46:30;14.00;1.00
38860;DHT22;24609;48.316;16.174;2024-03-02T09:48:56;14.80;99.90
38860;DHT22;24609;48.316;16.174;2024-03-02T09:51:22;15.30;99.90
38860;DHT22;24609;48.316;16.174;2024-03-02T09:53:48;14.70;91.00
38860;DHT22;24609;48.316;16.174;2024-03-02T09:56:14;14.80;99.90
38860;DHT22;24609;48.316;16.174;2024-03-02T09:58:41;14.50;99.90
38860;DHT22;24609;48.316;16.174;2024-03-02T10:01:07;14.40;85.50
38860;DHT22;24609;48.316;16.174;2024-03-02T10:03:33;14.40;99.90
38860;DHT22;24609;48.316;16.174;2024-03-02T10:06:27;13.90;99.90
38860;DHT22;24609;48.316;16.174;2024-03-02T10:08:54;13.30;99.90
38860;DHT22;24609;48.316;16.174;2024-03-02T10:11:34;13.10;1.00
38860;DHT22;24609;48.316;16.174;2024-03-02T10:14:12;12.50;99.90
38860;DHT22;24609;48.316;16.174;2024-03-02T10:16:40;12.10;99.90
38860;DHT22;24609;48.316;16.174;2024-03-02T10:19:21;12.30;99.90
38860;DHT22;24609;48.316;16.174;2024-03-02T10:21:52;13.00;99.90
38860;DHT22;24609;48.316;16.174;2024-03-02T10:24:19;12.90;99.90
38860;DHT22;24609;48.316;16.174;2024-03-02T10:26:45;13.20;95.90
38860;DHT22;24609;48.316;16.174;2024-03-02T10:29:12;13.70;1.00
38860;DHT22;24609;48.316;16.174;2024-03-02T10:31:38;14.30;99.90
38860;DHT22;24609;48.316;16.174;2024-03-02T10:34:05;14.40;99.90
38860;DHT22;24609;48.316;16.174;2024-03-02T10:36:35;14.10;99.90
38860;DHT22;24609;48.316;16.174;2024-03-02T10:39:06;14.00;99.90
38860;DHT22;24609;48.316;16.174;2024-03-02T10:41:36;14.10;99.90
38860;DHT22;24609;48.316;16.174;2024-03-02T10:44:07;14.50;99.90
38860;DHT22;24609;48.316;16.174;2024-03-02T10:46:34;14.80;99.90
38860;DHT22;24609;48.316;16.174;2024-03-02T10:49:01;15.00;99.90
38860;DHT22;24609;48.316;16.174;2024-03-02T10:51:29;15.00;91.20
38860;DHT22;24609;48.316;16.174;2024-03-02T10:53:57;15.30;50.60
38860;DHT22;24609;48.316;16.174;2024-03-02T10:56:33;15.50;23.90
38860;DHT22;24609;48.316;16.174;2024-03-02T11:01:39;14.80;1.00
38860;DHT22;24609;48.316;16.174;2024-03-02T11:04:08;14.40;1.00
38860;DHT22;24609;48.316;16.174;2024-03-02T11:06:36;14.60;1.00
38860;DHT22;24609;48.316;16.174;2024-03-02T11:09:07;14.50;1.00
38860;DHT22;24609;48.316;16.174;2024-03-02T11:11:40;14.40;1.00
38860;DHT22;24609;48.316;16.174;2024-03-02T11:14:07;14.00;49.80
38860;DHT22;24609;48.316;16.174;2024-03-02T11:16:38;14.00;99.90
38860;DHT22;24609;48.316;16.174;2024-03-02T11:19:10;13.70;99.90
38860;DHT22;24609;48.316;16.174;2024-03-02T11:21:38;14.10;99.90
38860;DHT22;24609;48.316;16.174;2024-03-02T11:26:49;14.00;99.90
38860;DHT22;24609;48.316;16.174;2024-03-02T11:32:22;13.90;99.90
38860;DHT22;24609;48.316;16.174;2024-03-02T11:34:51;13.70;99.90
38860;DHT22;24609;48.316;16.174;2024-03-02T11:37:20;13.70;1.00
38860;DHT22;24609;48.316;16.174;2024-03-02T11:39:49;13.80;1.00
38860;DHT22;24609;48.316;16.174;2024-03-02T11:42:15;13.70;1.00
38860;DHT22;24609;48.316;16.174;2024-03-02T11:44:44;13.40;88.00
38860;DHT22;24609;48.316;16.174;2024-03-02T11:47:11;13.80;99.90
38860;DHT22;24609;48.316;16.174;2024-03-02T11:49:50;13.90;1.00
38860;DHT22;24609;48.316;16.174;2024-03-02T11:52:17;14.10;99.90
38860;DHT22;24609;48.316;16.174;2024-03-02T11:54:46;14.50;99.90
38860;DHT22;24609;48.316;16.174;2024-03-02T11:57:17;14.70;99.90
38860;DHT22;24609;48.316;16.174;2024-03-02T11:59:44;13.90;1.00
38860;DHT22;24609;48.316;16.174;2024-03-02T12:02:19;13.50;99.90
38860;DHT22;24609;48.316;16.174;2024-03-02T12:04:46;13.50;99.90
38860;DHT22;24609;48.316;16.174;2024-03-02T12:07:22;13.20;1.00
38860;DHT22;24609;48.316;16.174;2024-03-02T12:09:49;12.90;99.90
38860;DHT22;24609;48.316;16.174;2024-03-02T12:12:24;13.50;99.90
38860;DHT22;24609;48.316;16.174;2024-03-02T12:14:51;13.50;99.90
38860;DHT22;24609;48.316;16.174;2024-03-02T12:17:22;13.30;1.00
38860;DHT22;24609;48.316;16.174;2024-03-02T12:19:47;13.20;44.30
38860;DHT22;24609;48.316;16.174;2024-03-02T12:22:13;13.60;99.90
38860;DHT22;24609;48.316;16.174;2024-03-02T12:24:39;13.50;99.90
38860;DHT22;24609;48.316;16.174;2024-03-02T12:27:08;14.00;99.90
38860;DHT22;24609;48.316;16.174;2024-03-02T12:29:34;14.40;99.90
38860;DHT22;24609;48.316;16.174;2024-03-02T12:32:00;14.80;99.90
38860;DHT22;24609;48.316;16.174;2024-03-02T12:34:27;14.70;99.90
38860;DHT22;24609;48.316;16.174;2024-03-02T12:36:53;14.30;99.90
38860;DHT22;24609;48.316;16.174;2024-03-02T12:39:19;15.00;99.90
38860;DHT22;24609;48.316;16.174;2024-03-02T12:41:46;15.60;9.40
38860;DHT22;24609;48.316;16.174;2024-03-02T12:44:12;15.70;1.00
38860;DHT22;24609;48.316;16.174;2024-03-02T12:46:38;15.60;1.00
38860;DHT22;24609;48.316;16.174;2024-03-02T12:49:14;15.60;1.00
38860;DHT22;24609;48.316;16.174;2024-03-02T12:51:42;16.70;1.00
38860;DHT22;24609;48.316;16.174;2024-03-02T12:54:08;17.10;1.00
38860;DHT22;24609;48.316;16.174;2024-03-02T12:56:35;16.50;1.00
38860;DHT22;24609;48.316;16.174;2024-03-02T12:59:01;16.60;1.00
38860;DHT22;24609;48.316;16.174;2024-03-02T13:01:27;15.70;1.00
38860;DHT22;24609;48.316;16.174;2024-03-02T13:03:54;15.40;1.00
38860;DHT22;24609;48.316;16.174;2024-03-02T13:06:23;14.50;1.00
38860;DHT22;24609;48.316;16.174;2024-03-02T13:08:49;13.90;99.90
38860;DHT22;24609;48.316;16.174;2024-03-02T13:11:16;13.40;1.00
38860;DHT22;24609;48.316;16.174;2024-03-02T13:13:42;13.40;1.00
38860;DHT22;24609;48.316;16.174;2024-03-02T13:16:09;13.40;49.20
38860;DHT22;24609;48.316;16.174;2024-03-02T13:18:36;13.20;99.90
38860;DHT22;24609;48.316;16.174;2024-03-02T13:21:01;13.10;1.00
38860;DHT22;24609;48.316;16.174;2024-03-02T13:23:27;12.90;99.20
38860;DHT22;24609;48.316;16.174;2024-03-02T13:25:58;13.00;99.90
38860;DHT22;24609;48.316;16.174;2024-03-02T13:28:27;12.70;1.00
38860;DHT22;24609;48.316;16.174;2024-03-02T13:30:53;12.80;99.90
38860;DHT22;24609;48.316;16.174;2024-03-02T13:33:19;12.80;1.00
38860;DHT22;24609;48.316;16.174;2024-03-02T13:35:51;12.80;14.30
38860;DHT22;24609;48.316;16.174;2024-03-02T13:38:18;12.70;99.90
38860;DHT22;24609;48.316;16.174;2024-03-02T13:40:44;13.10;1.00
38860;DHT22;24609;48.316;16.174;2024-03-02T13:43:11;13.50;99.90
38860;DHT22;24609;48.316;16.174;2024-03-02T13:45:38;13.30;99.90
38860;DHT22;24609;48.316;16.174;2024-03-02T13:48:03;13.00;99.90
38860;DHT22;24609;48.316;16.174;2024-03-02T13:50:29;13.00;1.00
38860;DHT22;24609;48.316;16.174;2024-03-02T13:52:56;13.00;1.00
38860;DHT22;24609;48.316;16.174;2024-03-02T13:55:22;12.80;1.00
38860;DHT22;24609;48.316;16.174;2024-03-02T13:57:47;12.90;1.00
38860;DHT22;24609;48.316;16.174;2024-03-02T14:00:18;13.00;99.90
38860;DHT22;24609;48.316;16.174;2024-03-02T14:02:45;13.30;94.00
38860;DHT22;24609;48.316;16.174;2024-03-02T14:05:11;13.10;99.90
38860;DHT22;24609;48.316;16.174;2024-03-02T14:07:38;13.10;99.90
38860;DHT22;24609;48.316;16.174;2024-03-02T14:10:04;13.30;14.10
38860;DHT22;24609;48.316;16.174;2024-03-02T14:12:30;13.10;16.90
38860;DHT22;24609;48.316;16.174;2024-03-02T14:14:56;12.90;99.90
38860;DHT22;24609;48.316;16.174;2024-03-02T14:17:24;12.80;99.90
38860;DHT22;24609;48.316;16.174;2024-03-02T14:19:50;12.70;1.00
38860;DHT22;24609;48.316;16.174;2024-03-02T14:22:16;12.90;99.90
38860;DHT22;24609;48.316;16.174;2024-03-02T14:24:43;13.00;99.90
38860;DHT22;24609;48.316;16.174;2024-03-02T14:27:09;13.20;32.80
38860;DHT22;24609;48.316;16.174;2024-03-02T14:29:35;13.10;99.90
38860;DHT22;24609;48.316;16.174;2024-03-02T14:32:03;13.30;99.90
38860;DHT22;24609;48.316;16.174;2024-03-02T14:34:29;13.30;26.20
38860;DHT22;24609;48.316;16.174;2024-03-02T14:36:55;13.20;99.90
38860;DHT22;24609;48.316;16.174;2024-03-02T14:39:21;13.50;98.90
38860;DHT22;24609;48.316;16.174;2024-03-02T14:41:47;13.50;1.00
38860;DHT22;24609;48.316;16.174;2024-03-02T14:44:13;13.50;1.00
38860;DHT22;24609;48.316;16.174;2024-03-02T14:46:39;13.80;1.00
38860;DHT22;24609;48.316;16.174;2024-03-02T14:49:04;13.70;99.90
38860;DHT22;24609;48.316;16.174;2024-03-02T14:51:30;13.40;1.00
38860;DHT22;24609;48.316;16.174;2024-03-02T14:53:56;13.40;35.00
38860;DHT22;24609;48.316;16.174;2024-03-02T14:56:22;13.20;99.90
38860;DHT22;24609;48.316;16.174;2024-03-02T14:58:47;13.20;99.90
38860;DHT22;24609;48.316;16.174;2024-03-02T15:01:13;13.00;84.40
38860;DHT22;24609;48.316;16.174;2024-03-02T15:03:40;12.90;99.90
38860;DHT22;24609;48.316;16.174;2024-03-02T15:06:05;12.80;67.80
38860;DHT22;24609;48.316;16.174;2024-03-02T15:08:33;12.70;99.90
38860;DHT22;24609;48.316;16.174;2024-03-02T15:10:58;12.70;99.90
38860;DHT22;24609;48.316;16.174;2024-03-02T15:13:25;12.50;1.00
38860;DHT22;24609;48.316;16.174;2024-03-02T15:15:52;12.50;31.20
38860;DHT22;24609;48.316;16.174;2024-03-02T15:18:18;12.40;76.80
38860;DHT22;24609;48.316;16.174;2024-03-02T15:20:44;12.30;99.90
38860;DHT22;24609;48.316;16.174;2024-03-02T15:23:09;12.20;99.90
38860;DHT22;24609;48.316;16.174;2024-03-02T15:25:35;12.10;99.90
38860;DHT22;24609;48.316;16.174;2024-03-02T15:28:01;12.10;1.00
38860;DHT22;24609;48.316;16.174;2024-03-02T15:30:27;12.10;1.00
38860;DHT22;24609;48.316;16.174;2024-03-02T15:32:53;12.10;14.90